sensor_id;sensor_type;location;lat;lon;timestamp;temperature;humidity
19164;DHT22;9714;51.208;4.242;2023-04-24T00:01:30;11.10;99.90
19164;DHT22;9714;51.208;4.242;2023-04-24T00:03:58;10.90;99.90
19164;DHT22;9714;51.208;4.242;2023-04-24T00:06:27;10.90;99.90
19164;DHT22;9714;51.208;4.242;2023-04-24T00:08:59;10.90;99.90
19164;DHT22;9714;51.208;4.242;2023-04-24T00:11:28;10.90;99.90
19164;DHT22;9714;51.208;4.242;2023-04-24T00:13:55;10.90;99.90
19164;DHT22;9714;51.208;4.242;2023-04-24T00:16:23;10.90;99.90
19164;DHT22;9714;51.208;4.242;2023-04-24T00:18:51;10.80;99.90
19164;DHT22;9714;51.208;4.242;2023-04-24T00:21:19;11.00;99.90
19164;DHT22;9714;51.208;4.242;2023-04-24T00:23:49;11.00;99.90
19164;DHT22;9714;51.208;4.242;2023-04-24T00:26:16;10.90;99.90
19164;DHT22;9714;51.208;4.242;2023-04-24T00:28:43;11.00;99.90
19164;DHT22;9714;51.208;4.242;2023-04-24T00:31:10;10.90;99.90
19164;DHT22;9714;51.208;4.242;2023-04-24T00:33:38;11.00;99.90
19164;DHT22;9714;51.208;4.242;2023-04-24T00:36:05;10.70;99.90
19164;DHT22;9714;51.208;4.242;2023-04-24T00:38:32;10.70;99.90
19164;DHT22;9714;51.208;4.242;2023-04-24T00:41:01;10.80;99.90
19164;DHT22;9714;51.208;4.242;2023-04-24T00:43:34;10.80;99.90
19164;DHT22;9714;51.208;4.242;2023-04-24T00:46:01;10.90;99.90
19164;DHT22;9714;51.208;4.242;2023-04-24T00:48:29;10.80;99.90
19164;DHT22;9714;51.208;4.242;2023-04-24T00:51:00;10.70;99.90
19164;DHT22;9714;51.208;4.242;2023-04-24T00:53:28;10.80;99.90
19164;DHT22;9714;51.208;4.242;2023-04-24T00:55:56;10.80;99.90
19164;DHT22;9714;51.208;4.242;2023-04-24T00:58:26;10.80;99.90
19164;DHT22;9714;51.208;4.242;2023-04-24T01:00:54;10.80;99.90
19164;DHT22;9714;51.208;4.242;2023-04-24T01:03:26;10.80;99.90
19164;DHT22;9714;51.208;4.242;2023-04-24T01:05:54;10.80;99.90
19164;DHT22;9714;51.208;4.242;2023-04-24T01:08:24;10.70;99.90
19164;DHT22;9714;51.208;4.242;2023-04-24T01:10:52;10.60;99.90
19164;DHT22;9714;51.208;4.242;2023-04-24T01:13:19;10.70;99.90
19164;DHT22;9714;51.208;4.242;2023-04-24T01:15:49;10.70;99.90
19164;DHT22;9714;51.208;4.242;2023-04-24T01:18:16;10.70;99.90
19164;DHT22;9714;51.208;4.242;2023-04-24T01:20:44;10.70;99.90
19164;DHT22;9714;51.208;4.242;2023-04-24T01:23:14;10.50;99.90
19164;DHT22;9714;51.208;4.242;2023-04-24T01:25:42;10.50;99.90
19164;DHT22;9714;51.208;4.242;2023-04-24T01:28:10;10.60;99.90
19164;DHT22;9714;51.208;4.242;2023-04-24T01:30:40;10.60;99.90
19164;DHT22;9714;51.208;4.242;2023-04-24T01:33:08;10.60;99.90
19164;DHT22;9714;51.208;4.242;2023-04-24T01:35:36;10.60;99.90
19164;DHT22;9714;51.208;4.242;2023-04-24T01:38:05;10.60;99.90
19164;DHT22;9714;51.208;4.242;2023-04-24T01:40:34;10.50;99.90
19164;DHT22;9714;51.208;4.242;2023-04-24T01:43:07;10.50;99.90
19164;DHT22;9714;51.208;4.242;2023-04-24T01:45:36;10.50;99.90
19164;DHT22;9714;51.208;4.242;2023-04-24T01:48:03;10.50;99.90
19164;DHT22;9714;51.208;4.242;2023-04-24T01:50:34;10.60;99.90
19164;DHT22;9714;51.208;4.242;2023-04-24T01:53:02;10.50;99.90
19164;DHT22;9714;51.208;4.242;2023-04-24T01:55:29;10.50;99.90
19164;DHT22;9714;51.208;4.242;2023-04-24T01:57:59;10.40;99.90
19164;DHT22;9714;51.208;4.242;2023-04-24T02:00:27;10.50;99.90
19164;DHT22;9714;51.208;4.242;2023-04-24T02:02:55;10.50;99.90
19164;DHT22;9714;51.208;4.242;2023-04-24T02:05:22;10.60;99.90
19164;DHT22;9714;51.208;4.242;2023-04-24T02:07:52;10.60;99.90
19164;DHT22;9714;51.208;4.242;2023-04-24T02:10:20;10.60;99.90
19164;DHT22;9714;51.208;4.242;2023-04-24T02:12:50;10.60;99.90
19164;DHT22;9714;51.208;4.242;2023-04-24T02:15:19;10.70;99.90
19164;DHT22;9714;51.208;4.242;2023-04-24T02:17:46;10.70;99.90
19164;DHT22;9714;51.208;4.242;2023-04-24T02:20:14;10.60;99.90
19164;DHT22;9714;51.208;4.242;2023-04-24T02:22:43;10.60;99.90
19164;DHT22;9714;51.208;4.242;2023-04-24T02:25:10;10.50;99.90
19164;DHT22;9714;51.208;4.242;2023-04-24T02:27:38;10.40;99.90
19164;DHT22;9714;51.208;4.242;2023-04-24T02:30:08;10.40;99.90
19164;DHT22;9714;51.208;4.242;2023-04-24T02:32:37;10.40;99.90
19164;DHT22;9714;51.208;4.242;2023-04-24T02:35:05;10.40;99.90
19164;DHT22;9714;51.208;4.242;2023-04-24T02:37:34;10.40;99.90
19164;DHT22;9714;51.208;4.242;2023-04-24T02:40:02;10.30;99.90
19164;DHT22;9714;51.208;4.242;2023-04-24T02:42:29;10.10;99.90
19164;DHT22;9714;51.208;4.242;2023-04-24T02:44:57;10.00;99.90
19164;DHT22;9714;51.208;4.242;2023-04-24T02:47:24;10.10;99.90
19164;DHT22;9714;51.208;4.242;2023-04-24T02:49:55;9.90;99.90
19164;DHT22;9714;51.208;4.242;2023-04-24T02:52:23;9.80;99.90
19164;DHT22;9714;51.208;4.242;2023-04-24T02:54:54;9.80;99.90
19164;DHT22;9714;51.208;4.242;2023-04-24T02:57:22;9.80;99.90
19164;DHT22;9714;51.208;4.242;2023-04-24T02:59:50;9.90;99.90
19164;DHT22;9714;51.208;4.242;2023-04-24T03:02:23;10.00;99.90
19164;DHT22;9714;51.208;4.242;2023-04-24T03:04:50;10.00;99.90
19164;DHT22;9714;51.208;4.242;2023-04-24T03:07:19;10.10;99.90
19164;DHT22;9714;51.208;4.242;2023-04-24T03:09:47;10.00;99.90
19164;DHT22;9714;51.208;4.242;2023-04-24T03:12:20;10.10;99.90
19164;DHT22;9714;51.208;4.242;2023-04-24T03:14:49;10.00;99.90
19164;DHT22;9714;51.208;4.242;2023-04-24T03:17:17;10.00;99.90
19164;DHT22;9714;51.208;4.242;2023-04-24T03:19:45;10.10;99.90
19164;DHT22;9714;51.208;4.242;2023-04-24T03:22:12;10.30;99.90
19164;DHT22;9714;51.208;4.242;2023-04-24T03:24:41;10.30;99.90
19164;DHT22;9714;51.208;4.242;2023-04-24T03:27:09;10.30;99.90
19164;DHT22;9714;51.208;4.242;2023-04-24T03:29:38;10.10;99.90
19164;DHT22;9714;51.208;4.242;2023-04-24T03:32:05;10.10;99.90
19164;DHT22;9714;51.208;4.242;2023-04-24T03:34:32;10.00;99.90
19164;DHT22;9714;51.208;4.242;2023-04-24T03:37:01;10.10;99.90
19164;DHT22;9714;51.208;4.242;2023-04-24T03:39:29;10.10;99.90
19164;DHT22;9714;51.208;4.242;2023-04-24T03:42:00;10.10;99.90
19164;DHT22;9714;51.208;4.242;2023-04-24T03:44:27;10.10;99.90
19164;DHT22;9714;51.208;4.242;2023-04-24T03:46:54;9.90;99.90
19164;DHT22;9714;51.208;4.242;2023-04-24T03:49:21;9.90;99.90
19164;DHT22;9714;51.208;4.242;2023-04-24T03:51:49;9.90;99.90
19164;DHT22;9714;51.208;4.242;2023-04-24T03:54:17;9.80;99.90
19164;DHT22;9714;51.208;4.242;2023-04-24T03:56:46;9.80;99.90
19164;DHT22;9714;51.208;4.242;2023-04-24T03:59:14;9.90;99.90
19164;DHT22;9714;51.208;4.242;2023-04-24T04:01:41;10.00;99.90
19164;DHT22;9714;51.208;4.242;2023-04-24T04:04:15;9.90;99.90
19164;DHT22;9714;51.208;4.242;2023-04-24T04:06:42;9.90;99.90
19164;DHT22;9714;51.208;4.242;2023-04-24T04:09:09;9.90;99.90
19164;DHT22;9714;51.208;4.242;2023-04-24T04:11:38;9.80;99.90
19164;DHT22;9714;51.208;4.242;2023-04-24T04:14:05;9.90;99.90
19164;DHT22;9714;51.208;4.242;2023-04-24T04:16:34;10.00;99.90
19164;DHT22;9714;51.208;4.242;2023-04-24T04:19:02;9.90;99.90
19164;DHT22;9714;51.208;4.242;2023-04-24T04:21:29;9.80;99.90
19164;DHT22;9714;51.208;4.242;2023-04-24T04:23:58;9.80;99.90
19164;DHT22;9714;51.208;4.242;2023-04-24T04:26:25;9.80;99.90
19164;DHT22;9714;51.208;4.242;2023-04-24T04:28:54;9.80;99.90
19164;DHT22;9714;51.208;4.242;2023-04-24T04:31:22;9.80;99.90
19164;DHT22;9714;51.208;4.242;2023-04-24T04:33:52;9.70;99.90
19164;DHT22;9714;51.208;4.242;2023-04-24T04:36:21;9.70;99.90
19164;DHT22;9714;51.208;4.242;2023-04-24T04:38:49;9.70;99.90
19164;DHT22;9714;51.208;4.242;2023-04-24T04:41:17;9.60;99.90
19164;DHT22;9714;51.208;4.242;2023-04-24T04:43:45;9.60;99.90
19164;DHT22;9714;51.208;4.242;2023-04-24T04:46:13;9.60;99.90
19164;DHT22;9714;51.208;4.242;2023-04-24T04:48:41;9.60;99.90
19164;DHT22;9714;51.208;4.242;2023-04-24T04:51:10;9.50;99.90
19164;DHT22;9714;51.208;4.242;2023-04-24T04:53:37;9.60;99.90
19164;DHT22;9714;51.208;4.242;2023-04-24T04:56:04;9.70;99.90
19164;DHT22;9714;51.208;4.242;2023-04-24T04:58:31;9.70;99.90
19164;DHT22;9714;51.208;4.242;2023-04-24T05:00:59;9.70;99.90
19164;DHT22;9714;51.208;4.242;2023-04-24T05:03:26;9.80;99.90
19164;DHT22;9714;51.208;4.242;2023-04-24T05:05:53;9.80;99.90
19164;DHT22;9714;51.208;4.242;2023-04-24T05:08:22;9.70;99.90
19164;DHT22;9714;51.208;4.242;2023-04-24T05:10:50;9.70;99.90
19164;DHT22;9714;51.208;4.242;2023-04-24T05:13:21;9.60;99.90
19164;DHT22;9714;51.208;4.242;2023-04-24T05:15:49;9.50;99.90
19164;DHT22;9714;51.208;4.242;2023-04-24T05:18:16;9.50;99.90
19164;DHT22;9714;51.208;4.242;2023-04-24T05:20:49;9.50;99.90
19164;DHT22;9714;51.208;4.242;2023-04-24T05:23:18;9.60;99.90
19164;DHT22;9714;51.208;4.242;2023-04-24T05:25:46;9.60;99.90
19164;DHT22;9714;51.208;4.242;2023-04-24T05:28:15;9.60;99.90
19164;DHT22;9714;51.208;4.242;2023-04-24T05:30:42;9.60;99.90
19164;DHT22;9714;51.208;4.242;2023-04-24T05:33:09;9.80;99.90
19164;DHT22;9714;51.208;4.242;2023-04-24T05:35:36;9.80;99.90
19164;DHT22;9714;51.208;4.242;2023-04-24T05:38:04;9.80;99.90
19164;DHT22;9714;51.208;4.242;2023-04-24T05:40:33;9.80;99.90
19164;DHT22;9714;51.208;4.242;2023-04-24T05:43:02;9.90;99.90
19164;DHT22;9714;51.208;4.242;2023-04-24T05:45:29;10.00;99.90
19164;DHT22;9714;51.208;4.242;2023-04-24T05:47:56;10.10;99.90
19164;DHT22;9714;51.208;4.242;2023-04-24T05:50:23;10.20;99.90
19164;DHT22;9714;51.208;4.242;2023-04-24T05:52:52;10.20;99.90
19164;DHT22;9714;51.208;4.242;2023-04-24T05:55:20;10.10;99.90
19164;DHT22;9714;51.208;4.242;2023-04-24T05:57:47;10.10;99.90
19164;DHT22;9714;51.208;4.242;2023-04-24T06:00:17;10.10;99.90
19164;DHT22;9714;51.208;4.242;2023-04-24T06:02:46;10.20;99.90
19164;DHT22;9714;51.208;4.242;2023-04-24T06:05:13;10.20;99.90
19164;DHT22;9714;51.208;4.242;2023-04-24T06:07:40;10.30;99.90
19164;DHT22;9714;51.208;4.242;2023-04-24T06:10:08;10.40;99.90
19164;DHT22;9714;51.208;4.242;2023-04-24T06:12:36;10.40;99.90
19164;DHT22;9714;51.208;4.242;2023-04-24T06:15:04;10.30;99.90
19164;DHT22;9714;51.208;4.242;2023-04-24T06:17:34;10.30;99.90
19164;DHT22;9714;51.208;4.242;2023-04-24T06:20:02;10.30;99.90
19164;DHT22;9714;51.208;4.242;2023-04-24T06:22:31;10.30;99.90
19164;DHT22;9714;51.208;4.242;2023-04-24T06:24:59;10.30;99.90
19164;DHT22;9714;51.208;4.242;2023-04-24T06:27:28;10.20;99.90
19164;DHT22;9714;51.208;4.242;2023-04-24T06:29:56;10.30;99.90
19164;DHT22;9714;51.208;4.242;2023-04-24T06:32:23;10.30;99.90
19164;DHT22;9714;51.208;4.242;2023-04-24T06:34:52;10.20;99.90
19164;DHT22;9714;51.208;4.242;2023-04-24T06:37:21;10.30;99.90
19164;DHT22;9714;51.208;4.242;2023-04-24T06:39:48;10.20;99.90
19164;DHT22;9714;51.208;4.242;2023-04-24T06:42:15;10.10;99.90
19164;DHT22;9714;51.208;4.242;2023-04-24T06:44:42;9.90;99.90
19164;DHT22;9714;51.208;4.242;2023-04-24T06:47:10;9.80;99.90
19164;DHT22;9714;51.208;4.242;2023-04-24T06:49:39;9.80;99.90
19164;DHT22;9714;51.208;4.242;2023-04-24T06:52:10;9.90;99.90
19164;DHT22;9714;51.208;4.242;2023-04-24T06:54:37;10.00;99.90
19164;DHT22;9714;51.208;4.242;2023-04-24T06:57:04;10.10;99.90
19164;DHT22;9714;51.208;4.242;2023-04-24T06:59:31;10.20;99.90
19164;DHT22;9714;51.208;4.242;2023-04-24T07:01:58;10.30;99.90
19164;DHT22;9714;51.208;4.242;2023-04-24T07:04:26;10.50;99.90
19164;DHT22;9714;51.208;4.242;2023-04-24T07:06:55;10.50;99.90
19164;DHT22;9714;51.208;4.242;2023-04-24T07:09:26;10.40;99.90
19164;DHT22;9714;51.208;4.242;2023-04-24T07:11:53;10.60;99.90
19164;DHT22;9714;51.208;4.242;2023-04-24T07:14:22;10.60;99.90
19164;DHT22;9714;51.208;4.242;2023-04-24T07:16:50;10.60;99.90
19164;DHT22;9714;51.208;4.242;2023-04-24T07:19:17;10.60;99.90
19164;DHT22;9714;51.208;4.242;2023-04-24T07:21:44;10.80;99.90
19164;DHT22;9714;51.208;4.242;2023-04-24T07:24:12;11.00;99.90
19164;DHT22;9714;51.208;4.242;2023-04-24T07:26:41;11.30;99.90
19164;DHT22;9714;51.208;4.242;2023-04-24T07:29:08;11.20;99.90
19164;DHT22;9714;51.208;4.242;2023-04-24T07:31:36;11.20;99.90
19164;DHT22;9714;51.208;4.242;2023-04-24T07:34:05;11.30;99.90
19164;DHT22;9714;51.208;4.242;2023-04-24T07:36:32;11.20;99.90
19164;DHT22;9714;51.208;4.242;2023-04-24T07:39:00;11.20;99.90
19164;DHT22;9714;51.208;4.242;2023-04-24T07:41:27;11.20;99.90
19164;DHT22;9714;51.208;4.242;2023-04-24T07:43:58;11.40;99.90
19164;DHT22;9714;51.208;4.242;2023-04-24T07:46:26;11.70;99.90
19164;DHT22;9714;51.208;4.242;2023-04-24T07:48:55;11.80;99.90
19164;DHT22;9714;51.208;4.242;2023-04-24T07:51:23;12.00;99.90
19164;DHT22;9714;51.208;4.242;2023-04-24T07:53:52;12.30;99.90
19164;DHT22;9714;51.208;4.242;2023-04-24T07:56:20;12.30;99.90
19164;DHT22;9714;51.208;4.242;2023-04-24T07:58:47;12.00;99.90
19164;DHT22;9714;51.208;4.242;2023-04-24T08:01:15;11.50;99.90
19164;DHT22;9714;51.208;4.242;2023-04-24T08:03:42;11.20;99.90
19164;DHT22;9714;51.208;4.242;2023-04-24T08:06:09;11.10;99.90
19164;DHT22;9714;51.208;4.242;2023-04-24T08:08:40;10.90;99.90
19164;DHT22;9714;51.208;4.242;2023-04-24T08:11:07;10.90;99.90
19164;DHT22;9714;51.208;4.242;2023-04-24T08:13:34;11.10;99.90
19164;DHT22;9714;51.208;4.242;2023-04-24T08:16:01;11.20;99.90
19164;DHT22;9714;51.208;4.242;2023-04-24T08:18:30;11.20;99.90
19164;DHT22;9714;51.208;4.242;2023-04-24T08:20:57;11.40;99.90
19164;DHT22;9714;51.208;4.242;2023-04-24T08:23:28;11.50;99.90
19164;DHT22;9714;51.208;4.242;2023-04-24T08:25:56;11.50;99.90
19164;DHT22;9714;51.208;4.242;2023-04-24T08:28:25;11.60;99.90
19164;DHT22;9714;51.208;4.242;2023-04-24T08:30:52;11.70;99.90
19164;DHT22;9714;51.208;4.242;2023-04-24T08:33:26;11.90;99.90
19164;DHT22;9714;51.208;4.242;2023-04-24T08:35:59;12.60;99.90
19164;DHT22;9714;51.208;4.242;2023-04-24T08:38:27;13.10;99.90
19164;DHT22;9714;51.208;4.242;2023-04-24T08:40:54;13.10;99.90
19164;DHT22;9714;51.208;4.242;2023-04-24T08:43:23;13.10;99.90
19164;DHT22;9714;51.208;4.242;2023-04-24T08:45:52;13.10;99.90
19164;DHT22;9714;51.208;4.242;2023-04-24T08:48:19;12.50;99.90
19164;DHT22;9714;51.208;4.242;2023-04-24T08:50:48;12.20;99.90
19164;DHT22;9714;51.208;4.242;2023-04-24T08:53:18;12.10;99.90
19164;DHT22;9714;51.208;4.242;2023-04-24T08:55:48;11.80;99.90
19164;DHT22;9714;51.208;4.242;2023-04-24T08:58:16;11.70;99.90
19164;DHT22;9714;51.208;4.242;2023-04-24T09:00:45;11.40;99.90
19164;DHT22;9714;51.208;4.242;2023-04-24T09:03:14;11.30;99.90
19164;DHT22;9714;51.208;4.242;2023-04-24T09:05:42;11.30;99.90
19164;DHT22;9714;51.208;4.242;2023-04-24T09:08:13;11.30;99.90
19164;DHT22;9714;51.208;4.242;2023-04-24T09:10:42;11.50;99.90
19164;DHT22;9714;51.208;4.242;2023-04-24T09:13:09;11.60;99.90
19164;DHT22;9714;51.208;4.242;2023-04-24T09:15:37;11.70;99.90
19164;DHT22;9714;51.208;4.242;2023-04-24T09:18:06;11.60;99.90
19164;DHT22;9714;51.208;4.242;2023-04-24T09:20:33;11.80;99.90
19164;DHT22;9714;51.208;4.242;2023-04-24T09:23:01;12.10;99.90
19164;DHT22;9714;51.208;4.242;2023-04-24T09:25:32;12.40;99.90
19164;DHT22;9714;51.208;4.242;2023-04-24T09:28:02;13.10;99.90
19164;DHT22;9714;51.208;4.242;2023-04-24T09:30:30;14.20;99.90
19164;DHT22;9714;51.208;4.242;2023-04-24T09:33:14;15.40;99.90
19164;DHT22;9714;51.208;4.242;2023-04-24T09:35:42;15.20;99.90
19164;DHT22;9714;51.208;4.242;2023-04-24T09:38:09;14.70;99.90
19164;DHT22;9714;51.208;4.242;2023-04-24T09:40:37;14.40;99.90
19164;DHT22;9714;51.208;4.242;2023-04-24T09:43:10;14.00;99.90
19164;DHT22;9714;51.208;4.242;2023-04-24T09:45:38;14.60;99.90
19164;DHT22;9714;51.208;4.242;2023-04-24T09:48:09;15.20;99.90
19164;DHT22;9714;51.208;4.242;2023-04-24T09:50:36;16.10;99.90
19164;DHT22;9714;51.208;4.242;2023-04-24T09:53:04;16.30;99.90
19164;DHT22;9714;51.208;4.242;2023-04-24T09:55:39;16.60;99.90
19164;DHT22;9714;51.208;4.242;2023-04-24T09:58:09;17.00;99.90
19164;DHT22;9714;51.208;4.242;2023-04-24T10:00:36;17.50;99.90
19164;DHT22;9714;51.208;4.242;2023-04-24T10:03:04;18.50;99.90
19164;DHT22;9714;51.208;4.242;2023-04-24T10:05:34;18.70;98.70
19164;DHT22;9714;51.208;4.242;2023-04-24T10:08:03;18.80;95.00
19164;DHT22;9714;51.208;4.242;2023-04-24T10:10:32;17.30;96.50
19164;DHT22;9714;51.208;4.242;2023-04-24T10:12:59;16.60;99.90
19164;DHT22;9714;51.208;4.242;2023-04-24T10:15:28;16.10;99.90
19164;DHT22;9714;51.208;4.242;2023-04-24T10:17:58;15.90;99.90
19164;DHT22;9714;51.208;4.242;2023-04-24T10:20:27;15.70;99.90
19164;DHT22;9714;51.208;4.242;2023-04-24T10:22:57;16.00;99.90
19164;DHT22;9714;51.208;4.242;2023-04-24T10:25:25;16.20;99.90
19164;DHT22;9714;51.208;4.242;2023-04-24T10:28:00;16.90;99.90
19164;DHT22;9714;51.208;4.242;2023-04-24T10:30:29;18.20;99.90
19164;DHT22;9714;51.208;4.242;2023-04-24T10:33:00;18.60;94.40
19164;DHT22;9714;51.208;4.242;2023-04-24T10:35:31;17.70;95.30
19164;DHT22;9714;51.208;4.242;2023-04-24T10:38:02;16.70;97.60
19164;DHT22;9714;51.208;4.242;2023-04-24T10:40:36;15.90;99.90
19164;DHT22;9714;51.208;4.242;2023-04-24T10:43:05;15.50;99.90
19164;DHT22;9714;51.208;4.242;2023-04-24T10:45:35;15.60;99.90
19164;DHT22;9714;51.208;4.242;2023-04-24T10:48:04;16.60;99.90
19164;DHT22;9714;51.208;4.242;2023-04-24T10:50:43;16.60;99.90
19164;DHT22;9714;51.208;4.242;2023-04-24T10:53:13;15.90;99.90
19164;DHT22;9714;51.208;4.242;2023-04-24T10:55:46;15.30;99.90
19164;DHT22;9714;51.208;4.242;2023-04-24T10:58:14;15.50;99.90
19164;DHT22;9714;51.208;4.242;2023-04-24T11:00:56;16.80;99.90
19164;DHT22;9714;51.208;4.242;2023-04-24T11:03:25;18.00;96.40
19164;DHT22;9714;51.208;4.242;2023-04-24T11:05:56;19.20;93.00
19164;DHT22;9714;51.208;4.242;2023-04-24T11:08:30;20.10;84.60
19164;DHT22;9714;51.208;4.242;2023-04-24T11:10:59;19.90;77.60
19164;DHT22;9714;51.208;4.242;2023-04-24T11:16:20;17.60;88.60
19164;DHT22;9714;51.208;4.242;2023-04-24T11:18:51;16.80;92.40
19164;DHT22;9714;51.208;4.242;2023-04-24T11:21:20;16.80;93.70
19164;DHT22;9714;51.208;4.242;2023-04-24T11:23:48;16.60;91.50
19164;DHT22;9714;51.208;4.242;2023-04-24T11:26:18;16.30;92.40
19164;DHT22;9714;51.208;4.242;2023-04-24T11:28:48;16.00;94.10
19164;DHT22;9714;51.208;4.242;2023-04-24T11:31:36;15.80;95.80
19164;DHT22;9714;51.208;4.242;2023-04-24T11:34:09;16.10;96.10
19164;DHT22;9714;51.208;4.242;2023-04-24T11:36:36;16.40;93.80
19164;DHT22;9714;51.208;4.242;2023-04-24T11:39:04;16.50;94.10
19164;DHT22;9714;51.208;4.242;2023-04-24T11:41:31;17.00;92.70
19164;DHT22;9714;51.208;4.242;2023-04-24T11:43:59;17.80;90.30
19164;DHT22;9714;51.208;4.242;2023-04-24T11:46:30;18.00;89.10
19164;DHT22;9714;51.208;4.242;2023-04-24T11:48:59;17.70;87.60
19164;DHT22;9714;51.208;4.242;2023-04-24T11:51:27;17.50;87.20
19164;DHT22;9714;51.208;4.242;2023-04-24T11:53:55;17.30;88.90
19164;DHT22;9714;51.208;4.242;2023-04-24T11:56:23;17.20;88.80
19164;DHT22;9714;51.208;4.242;2023-04-24T11:58:52;18.30;90.40
19164;DHT22;9714;51.208;4.242;2023-04-24T12:01:19;19.40;81.40
19164;DHT22;9714;51.208;4.242;2023-04-24T12:03:50;19.00;82.80
19164;DHT22;9714;51.208;4.242;2023-04-24T12:06:19;18.70;81.50
19164;DHT22;9714;51.208;4.242;2023-04-24T12:08:46;19.40;80.30
19164;DHT22;9714;51.208;4.242;2023-04-24T12:11:16;19.30;77.90
19164;DHT22;9714;51.208;4.242;2023-04-24T12:13:47;19.10;78.50
19164;DHT22;9714;51.208;4.242;2023-04-24T12:16:15;19.00;80.10
19164;DHT22;9714;51.208;4.242;2023-04-24T12:18:45;19.10;81.00
19164;DHT22;9714;51.208;4.242;2023-04-24T12:21:21;18.30;79.50
19164;DHT22;9714;51.208;4.242;2023-04-24T12:23:50;17.40;83.20
19164;DHT22;9714;51.208;4.242;2023-04-24T12:26:18;17.00;86.30
19164;DHT22;9714;51.208;4.242;2023-04-24T12:28:47;16.70;87.80
19164;DHT22;9714;51.208;4.242;2023-04-24T12:31:15;16.10;91.70
19164;DHT22;9714;51.208;4.242;2023-04-24T12:33:43;15.70;96.90
19164;DHT22;9714;51.208;4.242;2023-04-24T12:36:11;15.60;99.80
19164;DHT22;9714;51.208;4.242;2023-04-24T12:38:43;15.70;99.90
19164;DHT22;9714;51.208;4.242;2023-04-24T12:41:13;15.80;99.90
19164;DHT22;9714;51.208;4.242;2023-04-24T12:43:51;16.00;99.80
19164;DHT22;9714;51.208;4.242;2023-04-24T12:46:19;16.30;97.30
19164;DHT22;9714;51.208;4.242;2023-04-24T12:48:47;17.40;96.90
19164;DHT22;9714;51.208;4.242;2023-04-24T12:51:14;18.00;92.90
19164;DHT22;9714;51.208;4.242;2023-04-24T12:53:42;17.20;92.60
19164;DHT22;9714;51.208;4.242;2023-04-24T12:56:11;18.00;92.80
19164;DHT22;9714;51.208;4.242;2023-04-24T12:58:38;19.30;87.90
19164;DHT22;9714;51.208;4.242;2023-04-24T13:01:05;20.30;79.60
19164;DHT22;9714;51.208;4.242;2023-04-24T13:03:32;21.00;75.90
19164;DHT22;9714;51.208;4.242;2023-04-24T13:05:59;21.40;72.90
19164;DHT22;9714;51.208;4.242;2023-04-24T13:08:26;21.60;70.30
19164;DHT22;9714;51.208;4.242;2023-04-24T13:10:55;19.90;75.40
19164;DHT22;9714;51.208;4.242;2023-04-24T13:13:22;19.20;79.00
19164;DHT22;9714;51.208;4.242;2023-04-24T13:15:49;18.80;81.60
19164;DHT22;9714;51.208;4.242;2023-04-24T13:18:16;18.60;84.40
19164;DHT22;9714;51.208;4.242;2023-04-24T13:20:43;19.40;84.10
19164;DHT22;9714;51.208;4.242;2023-04-24T13:23:13;20.10;80.90
19164;DHT22;9714;51.208;4.242;2023-04-24T13:25:41;19.70;80.90
19164;DHT22;9714;51.208;4.242;2023-04-24T13:28:10;19.20;80.70
19164;DHT22;9714;51.208;4.242;2023-04-24T13:30:37;19.00;81.40
19164;DHT22;9714;51.208;4.242;2023-04-24T13:33:04;17.80;84.30
19164;DHT22;9714;51.208;4.242;2023-04-24T13:35:31;17.00;90.10
19164;DHT22;9714;51.208;4.242;2023-04-24T13:37:58;16.80;92.30
19164;DHT22;9714;51.208;4.242;2023-04-24T13:40:27;17.70;94.00
19164;DHT22;9714;51.208;4.242;2023-04-24T13:42:55;19.30;87.40
19164;DHT22;9714;51.208;4.242;2023-04-24T13:45:24;19.80;82.80
19164;DHT22;9714;51.208;4.242;2023-04-24T13:47:52;19.90;79.20
19164;DHT22;9714;51.208;4.242;2023-04-24T13:50:21;20.20;76.90
19164;DHT22;9714;51.208;4.242;2023-04-24T13:52:48;19.80;78.00
19164;DHT22;9714;51.208;4.242;2023-04-24T13:55:15;20.70;76.10
19164;DHT22;9714;51.208;4.242;2023-04-24T13:57:42;21.40;70.00
19164;DHT22;9714;51.208;4.242;2023-04-24T14:00:11;21.60;69.20
19164;DHT22;9714;51.208;4.242;2023-04-24T14:02:40;21.90;69.90
19164;DHT22;9714;51.208;4.242;2023-04-24T14:05:08;22.60;69.50
19164;DHT22;9714;51.208;4.242;2023-04-24T14:07:41;22.40;66.80
19164;DHT22;9714;51.208;4.242;2023-04-24T14:10:10;20.50;69.80
19164;DHT22;9714;51.208;4.242;2023-04-24T14:12:37;20.20;72.10
19164;DHT22;9714;51.208;4.242;2023-04-24T14:15:05;20.20;70.10
19164;DHT22;9714;51.208;4.242;2023-04-24T14:17:32;20.70;70.50
19164;DHT22;9714;51.208;4.242;2023-04-24T14:20:02;20.90;71.00
19164;DHT22;9714;51.208;4.242;2023-04-24T14:22:30;21.70;68.50
19164;DHT22;9714;51.208;4.242;2023-04-24T14:24:57;21.40;69.60
19164;DHT22;9714;51.208;4.242;2023-04-24T14:27:24;21.10;69.40
19164;DHT22;9714;51.208;4.242;2023-04-24T14:29:52;21.40;68.80
19164;DHT22;9714;51.208;4.242;2023-04-24T14:32:21;21.20;64.70
19164;DHT22;9714;51.208;4.242;2023-04-24T14:34:48;21.70;62.50
19164;DHT22;9714;51.208;4.242;2023-04-24T14:37:19;21.60;62.60
19164;DHT22;9714;51.208;4.242;2023-04-24T14:39:46;21.30;63.10
19164;DHT22;9714;51.208;4.242;2023-04-24T14:42:13;20.40;65.10
19164;DHT22;9714;51.208;4.242;2023-04-24T14:44:44;20.00;66.70
19164;DHT22;9714;51.208;4.242;2023-04-24T14:47:11;20.70;66.80
19164;DHT22;9714;51.208;4.242;2023-04-24T14:49:38;20.10;69.80
19164;DHT22;9714;51.208;4.242;2023-04-24T14:52:05;19.30;74.70
19164;DHT22;9714;51.208;4.242;2023-04-24T14:54:46;19.00;74.60
19164;DHT22;9714;51.208;4.242;2023-04-24T14:57:16;18.90;76.10
19164;DHT22;9714;51.208;4.242;2023-04-24T15:00:01;19.80;75.80
19164;DHT22;9714;51.208;4.242;2023-04-24T15:02:34;21.30;73.00
19164;DHT22;9714;51.208;4.242;2023-04-24T15:05:06;21.50;68.60
19164;DHT22;9714;51.208;4.242;2023-04-24T15:07:34;21.60;66.10
19164;DHT22;9714;51.208;4.242;2023-04-24T15:10:06;20.80;66.00
19164;DHT22;9714;51.208;4.242;2023-04-24T15:12:33;20.50;66.50
19164;DHT22;9714;51.208;4.242;2023-04-24T15:15:00;21.30;65.80
19164;DHT22;9714;51.208;4.242;2023-04-24T15:17:29;21.50;63.10
19164;DHT22;9714;51.208;4.242;2023-04-24T15:20:03;20.50;65.90
19164;DHT22;9714;51.208;4.242;2023-04-24T15:22:33;20.90;67.70
19164;DHT22;9714;51.208;4.242;2023-04-24T15:25:01;20.40;67.30
19164;DHT22;9714;51.208;4.242;2023-04-24T15:27:40;19.60;68.30
19164;DHT22;9714;51.208;4.242;2023-04-24T15:30:09;18.40;70.00
19164;DHT22;9714;51.208;4.242;2023-04-24T15:32:38;17.70;73.60
19164;DHT22;9714;51.208;4.242;2023-04-24T15:35:06;17.40;75.30
19164;DHT22;9714;51.208;4.242;2023-04-24T15:37:35;17.30;77.50
19164;DHT22;9714;51.208;4.242;2023-04-24T15:40:03;16.90;76.10
19164;DHT22;9714;51.208;4.242;2023-04-24T15:42:32;16.80;77.80
19164;DHT22;9714;51.208;4.242;2023-04-24T15:45:01;17.10;78.70
19164;DHT22;9714;51.208;4.242;2023-04-24T15:47:29;17.40;79.80
19164;DHT22;9714;51.208;4.242;2023-04-24T15:49:57;17.60;76.10
19164;DHT22;9714;51.208;4.242;2023-04-24T15:52:25;18.10;74.00
19164;DHT22;9714;51.208;4.242;2023-04-24T15:54:53;18.10;72.70
19164;DHT22;9714;51.208;4.242;2023-04-24T15:57:21;18.00;74.70
19164;DHT22;9714;51.208;4.242;2023-04-24T15:59:49;18.00;76.90